createdAt,value
2023-01-26T00:01:44.711Z,1.21
2023-01-26T00:07:06.586Z,1.29
2023-01-26T00:12:28.443Z,1.23
2023-01-26T00:17:50.293Z,1.37
2023-01-26T00:23:12.154Z,1.39
2023-01-26T00:28:34.388Z,1.29
2023-01-26T00:33:57.159Z,1.14
2023-01-26T00:39:19.102Z,1.17
2023-01-26T00:44:42.906Z,0.96
2023-01-26T00:50:05.498Z,1.05
2023-01-26T00:55:27.438Z,0.91
2023-01-26T01:00:49.391Z,0.97
2023-01-26T01:06:11.318Z,0.89
2023-01-26T01:11:33.188Z,0.82
2023-01-26T01:16:55.115Z,0.79
2023-01-26T01:22:17.118Z,0.80
2023-01-26T01:27:38.956Z,0.94
2023-01-26T01:33:00.861Z,0.90
2023-01-26T01:38:22.812Z,1.00
2023-01-26T01:43:44.972Z,1.14
2023-01-26T01:49:20.682Z,1.14
2023-01-26T01:54:51.798Z,1.10
2023-01-26T02:00:16.310Z,1.10
2023-01-26T02:05:59.907Z,1.00
2023-01-26T02:11:30.714Z,1.04
2023-01-26T02:16:52.594Z,1.14
2023-01-26T02:22:35.783Z,1.14
2023-01-26T02:27:57.637Z,1.17
2023-01-26T02:33:25.436Z,1.14
2023-01-26T02:39:05.840Z,1.12
2023-01-26T02:44:29.224Z,1.19
2023-01-26T02:49:51.073Z,1.28
2023-01-26T02:55:12.950Z,1.33
2023-01-26T03:00:37.210Z,1.36
2023-01-26T03:05:59.221Z,1.45
2023-01-26T03:11:21.123Z,1.25
2023-01-26T03:16:43.650Z,1.51
2023-01-26T03:22:05.738Z,1.41
2023-01-26T03:27:28.326Z,1.37
2023-01-26T03:32:50.463Z,1.46
2023-01-26T03:38:12.733Z,1.40
2023-01-26T03:43:34.993Z,1.58
2023-01-26T03:48:56.895Z,1.49
2023-01-26T03:54:18.823Z,1.57
2023-01-26T03:59:40.676Z,1.53
2023-01-26T04:05:02.881Z,1.52
2023-01-26T04:10:25.557Z,1.31
2023-01-26T04:15:48.370Z,1.19
2023-01-26T04:21:10.247Z,1.18
2023-01-26T04:26:32.338Z,1.23
2023-01-26T04:31:54.233Z,1.25
2023-01-26T04:37:16.147Z,1.16
2023-01-26T04:42:38.092Z,1.23
2023-01-26T04:47:59.979Z,1.09
2023-01-26T04:53:21.895Z,1.14
2023-01-26T04:58:43.838Z,1.02
2023-01-26T05:04:06.563Z,1.24
2023-01-26T05:09:28.536Z,1.14
2023-01-26T05:14:50.465Z,1.22
2023-01-26T05:20:12.859Z,1.29
2023-01-26T05:25:34.823Z,1.37
2023-01-26T05:30:56.813Z,1.18
2023-01-26T05:36:18.723Z,1.14
2023-01-26T05:41:40.583Z,1.07
2023-01-26T05:47:02.418Z,1.15
2023-01-26T05:52:24.245Z,1.12
2023-01-26T05:57:46.244Z,1.25
2023-01-26T06:03:08.149Z,1.08
2023-01-26T06:08:30.052Z,1.21
2023-01-26T06:13:51.943Z,1.25
2023-01-26T06:19:13.846Z,1.03
2023-01-26T06:24:35.740Z,1.01
2023-01-26T06:29:57.637Z,0.86
2023-01-26T06:35:19.564Z,0.85
2023-01-26T06:40:41.396Z,0.88
2023-01-26T06:46:05.041Z,0.90
2023-01-26T06:51:33.037Z,0.93
2023-01-26T06:56:54.866Z,0.83
2023-01-26T07:02:19.270Z,0.84
2023-01-26T07:07:41.122Z,0.93
2023-01-26T07:13:06.418Z,0.85
2023-01-26T07:18:28.500Z,0.89
2023-01-26T07:23:50.965Z,1.00
2023-01-26T07:29:12.854Z,0.89
2023-01-26T07:34:34.687Z,0.98
2023-01-26T07:39:56.668Z,0.77
2023-01-26T07:45:18.535Z,0.98
2023-01-26T07:50:40.374Z,0.99
2023-01-26T07:56:13.553Z,1.04
2023-01-26T08:01:35.373Z,1.04
2023-01-26T08:06:57.224Z,1.05
2023-01-26T08:12:19.150Z,1.02
2023-01-26T08:17:40.997Z,1.27
2023-01-26T08:23:02.824Z,1.53
2023-01-26T08:28:24.947Z,1.47
2023-01-26T08:33:48.860Z,1.40
2023-01-26T08:39:10.728Z,1.51
2023-01-26T08:44:32.572Z,1.64
2023-01-26T08:49:54.417Z,1.77
2023-01-26T08:55:16.345Z,1.76
2023-01-26T09:00:38.208Z,1.87
2023-01-26T09:06:01.129Z,1.73
2023-01-26T09:11:22.979Z,1.75
2023-01-26T09:16:44.932Z,1.93
2023-01-26T09:22:06.759Z,1.79
2023-01-26T09:27:28.728Z,1.86
2023-01-26T09:32:51.402Z,1.88
2023-01-26T09:38:13.281Z,1.98
2023-01-26T09:43:40.309Z,1.69
2023-01-26T09:49:17.458Z,1.73
2023-01-26T09:55:02.457Z,1.59
2023-01-26T10:00:26.999Z,1.76
2023-01-26T10:05:59.158Z,1.84
2023-01-26T10:11:28.198Z,1.92
2023-01-26T10:16:53.726Z,1.98
2023-01-26T10:22:30.753Z,2.00
2023-01-26T10:27:52.868Z,2.04
2023-01-26T10:33:18.983Z,1.58
2023-01-26T10:38:42.565Z,1.86
2023-01-26T10:44:20.541Z,1.92
2023-01-26T10:49:42.379Z,1.61
2023-01-26T10:55:13.322Z,1.60
2023-01-26T11:00:35.403Z,1.73
2023-01-26T11:06:12.183Z,2.00
2023-01-26T11:11:34.161Z,2.19
2023-01-26T11:17:08.998Z,2.37
2023-01-26T11:22:33.875Z,2.19
2023-01-26T11:28:22.549Z,2.28
2023-01-26T11:33:56.470Z,2.31
2023-01-26T11:39:36.280Z,2.22
2023-01-26T11:45:16.492Z,1.89
2023-01-26T11:50:45.715Z,1.89
2023-01-26T11:56:33.298Z,1.70
2023-01-26T12:02:14.508Z,1.73
2023-01-26T12:07:55.032Z,1.85
2023-01-26T12:13:36.105Z,1.95
2023-01-26T12:19:24.943Z,1.92
2023-01-26T12:25:21.244Z,1.81
2023-01-26T12:30:49.926Z,1.63
2023-01-26T12:36:45.122Z,1.73
2023-01-26T12:42:24.002Z,1.94
2023-01-26T12:47:51.789Z,1.92
2023-01-26T12:53:20.824Z,1.86
2023-01-26T12:58:45.827Z,1.85
2023-01-26T13:04:16.740Z,1.79
2023-01-26T13:09:38.658Z,2.00
2023-01-26T13:15:01.150Z,1.98
2023-01-26T13:20:23.056Z,1.50
2023-01-26T13:26:10.140Z,1.52
2023-01-26T13:31:34.196Z,1.65
2023-01-26T13:37:05.271Z,1.50
2023-01-26T13:42:37.728Z,1.41
2023-01-26T13:48:05.583Z,1.40
2023-01-26T13:53:35.131Z,1.57
2023-01-26T13:59:15.523Z,1.46
2023-01-26T14:04:37.365Z,1.59
2023-01-26T14:10:02.114Z,1.63
2023-01-26T14:15:32.580Z,1.43
2023-01-26T14:21:06.220Z,1.51
2023-01-26T14:26:32.519Z,1.52
2023-01-26T14:31:56.863Z,1.62
2023-01-26T14:37:18.972Z,1.42
2023-01-26T14:42:41.292Z,1.36
2023-01-26T14:48:09.087Z,1.16
2023-01-26T15:00:01.376Z,1.18
2023-01-26T15:05:33.195Z,1.31
2023-01-26T15:10:59.291Z,1.28
2023-01-26T15:16:24.367Z,1.46
2023-01-26T15:21:46.990Z,1.27
2023-01-26T15:27:12.298Z,1.41
2023-01-26T15:32:40.155Z,1.28
2023-01-26T15:38:04.521Z,1.15
2023-01-26T15:43:26.557Z,1.22
2023-01-26T15:48:48.789Z,1.12
2023-01-26T15:54:11.422Z,1.23
2023-01-26T15:59:33.315Z,1.32
2023-01-26T16:04:55.121Z,1.05
2023-01-26T16:10:17.387Z,1.19
2023-01-26T16:15:41.708Z,1.26
2023-01-26T16:21:15.572Z,1.32
2023-01-26T16:26:37.783Z,1.22
2023-01-26T16:31:59.986Z,1.16
2023-01-26T16:37:21.842Z,1.18
2023-01-26T16:42:47.497Z,1.11
2023-01-26T16:48:15.041Z,0.93
2023-01-26T16:53:36.929Z,0.82
2023-01-26T16:58:58.967Z,1.04
2023-01-26T17:04:20.783Z,0.97
2023-01-26T17:09:42.616Z,0.92
2023-01-26T17:15:06.205Z,0.91
2023-01-26T17:20:28.058Z,0.82
2023-01-26T17:25:56.973Z,0.80
2023-01-26T17:31:21.347Z,0.68
2023-01-26T17:36:45.793Z,0.60
2023-01-26T17:42:07.953Z,0.77
2023-01-26T17:47:32.843Z,0.69
2023-01-26T17:52:54.679Z,0.84
2023-01-26T17:58:16.560Z,0.70
2023-01-26T18:03:42.363Z,0.82
2023-01-26T18:09:05.505Z,0.74
2023-01-26T18:14:27.330Z,0.80
2023-01-26T18:19:49.176Z,0.85
2023-01-26T18:25:11.381Z,0.82
2023-01-26T18:30:33.487Z,0.78
2023-01-26T18:36:03.554Z,0.72
2023-01-26T18:41:27.943Z,0.75
2023-01-26T18:46:49.858Z,0.69
2023-01-26T18:52:11.729Z,0.70
2023-01-26T18:57:33.621Z,0.76
2023-01-26T19:02:55.534Z,0.75
2023-01-26T19:08:17.492Z,0.88
2023-01-26T19:13:39.439Z,0.97
2023-01-26T19:19:01.292Z,0.98
2023-01-26T19:24:23.394Z,0.82
2023-01-26T19:29:45.238Z,1.03
2023-01-26T19:35:07.454Z,1.02
2023-01-26T19:40:29.331Z,1.03
2023-01-26T19:45:53.506Z,0.97
2023-01-26T19:51:18.690Z,0.99
2023-01-26T19:56:41.337Z,0.90
2023-01-26T20:02:04.333Z,1.01
2023-01-26T20:07:26.229Z,0.81
2023-01-26T20:12:48.072Z,0.93
2023-01-26T20:18:10.557Z,0.90
2023-01-26T20:23:32.877Z,0.93
2023-01-26T20:28:57.939Z,1.02
2023-01-26T20:34:20.194Z,1.02
2023-01-26T20:39:42.117Z,0.96
2023-01-26T20:45:04.107Z,0.98
2023-01-26T20:50:26.001Z,0.94
2023-01-26T20:55:47.999Z,0.87
2023-01-26T21:01:13.419Z,0.93
2023-01-26T21:06:36.048Z,0.85
2023-01-26T21:11:57.847Z,0.91
2023-01-26T21:17:19.688Z,0.94
2023-01-26T21:22:41.616Z,0.83
2023-01-26T21:28:03.473Z,0.77
2023-01-26T21:33:25.280Z,0.90
2023-01-26T21:38:48.417Z,0.86
2023-01-26T21:44:12.439Z,0.83
2023-01-26T21:49:34.419Z,0.76
2023-01-26T21:54:56.268Z,0.85
2023-01-26T22:00:18.698Z,0.71
2023-01-26T22:05:40.582Z,0.72
2023-01-26T22:11:02.488Z,0.76
2023-01-26T22:16:24.737Z,0.81
2023-01-26T22:21:46.888Z,0.83
2023-01-26T22:27:08.726Z,0.88
2023-01-26T22:32:30.765Z,0.64
2023-01-26T22:37:54.065Z,0.78
2023-01-26T22:43:17.222Z,0.78
2023-01-26T22:48:39.099Z,0.57
2023-01-26T22:54:01.217Z,0.63
2023-01-26T22:59:23.101Z,0.63
2023-01-26T23:04:44.998Z,0.64
2023-01-26T23:10:07.470Z,0.77
2023-01-26T23:15:29.755Z,0.71
2023-01-26T23:20:51.929Z,0.65
2023-01-26T23:26:13.869Z,0.81
2023-01-26T23:31:35.826Z,0.60
2023-01-26T23:36:57.770Z,0.75
2023-01-26T23:42:19.618Z,0.58
2023-01-26T23:47:41.682Z,0.79
2023-01-26T23:53:03.620Z,0.83
2023-01-26T23:58:25.605Z,0.69
